createdAt,value
2019-05-12T00:00:21.586Z,11.70
2019-05-12T00:02:50.129Z,11.90
2019-05-12T00:05:18.904Z,11.80
2019-05-12T00:07:48.665Z,11.90
2019-05-12T00:10:19.709Z,11.80
2019-05-12T00:12:48.670Z,11.90
2019-05-12T00:15:19.298Z,11.80
2019-05-12T00:17:48.491Z,11.70
2019-05-12T00:20:18.175Z,11.50
2019-05-12T00:22:51.494Z,11.60
2019-05-12T00:25:20.151Z,11.50
2019-05-12T00:27:49.004Z,11.30
2019-05-12T00:30:38.893Z,11.30
2019-05-12T00:33:09.429Z,11.50
2019-05-12T00:35:38.397Z,11.40
2019-05-12T00:38:09.035Z,11.30
2019-05-12T00:40:39.338Z,11.40
2019-05-12T00:43:09.135Z,11.50
2019-05-12T00:45:38.957Z,11.40
2019-05-12T00:48:09.170Z,11.30
2019-05-12T00:50:38.621Z,11.40
2019-05-12T00:53:09.188Z,11.30
2019-05-12T00:55:38.225Z,11.30
2019-05-12T00:58:08.282Z,11.30
2019-05-12T01:00:40.688Z,11.30
2019-05-12T01:03:08.731Z,11.40
2019-05-12T01:05:38.276Z,11.30
2019-05-12T01:08:08.857Z,11.30
2019-05-12T01:10:38.968Z,11.40
2019-05-12T01:13:08.740Z,11.40
2019-05-12T01:15:38.023Z,11.30
2019-05-12T01:18:09.231Z,11.40
2019-05-12T01:20:39.014Z,11.30
2019-05-12T01:23:08.691Z,11.30
2019-05-12T01:25:39.423Z,11.30
2019-05-12T01:28:08.429Z,11.30
2019-05-12T01:30:38.994Z,11.20
2019-05-12T01:33:08.513Z,11.20
2019-05-12T01:35:38.800Z,11.20
2019-05-12T01:38:08.235Z,11.20
2019-05-12T01:40:39.420Z,11.10
2019-05-12T01:43:08.515Z,11.00
2019-05-12T01:45:38.094Z,11.00
2019-05-12T01:48:08.835Z,10.90
2019-05-12T01:50:38.664Z,10.90
2019-05-12T01:53:08.394Z,10.80
2019-05-12T01:55:38.632Z,10.60
2019-05-12T01:58:08.503Z,10.70
2019-05-12T02:00:38.693Z,10.70
2019-05-12T02:03:09.128Z,10.50
2019-05-12T02:05:39.798Z,10.60
2019-05-12T02:08:10.055Z,10.60
2019-05-12T02:10:39.061Z,10.80
2019-05-12T02:13:08.134Z,10.80
2019-05-12T02:15:39.808Z,10.90
2019-05-12T02:18:09.041Z,11.00
2019-05-12T02:20:38.379Z,10.90
2019-05-12T02:23:09.074Z,11.00
2019-05-12T02:25:38.215Z,11.00
2019-05-12T02:28:09.322Z,11.00
2019-05-12T02:30:41.213Z,11.00
2019-05-12T02:33:07.749Z,11.00
2019-05-12T02:35:36.316Z,10.90
2019-05-12T02:38:05.522Z,11.00
2019-05-12T02:40:35.041Z,11.00
2019-05-12T02:43:15.460Z,11.10
2019-05-12T02:45:44.740Z,11.10
2019-05-12T02:48:14.383Z,11.20
2019-05-12T02:50:45.234Z,11.20
2019-05-12T02:53:14.579Z,10.80
2019-05-12T02:55:45.006Z,11.00
2019-05-12T02:58:16.014Z,11.10
2019-05-12T03:00:46.014Z,11.10
2019-05-12T03:03:16.178Z,11.20
2019-05-12T03:05:46.575Z,11.10
2019-05-12T03:08:16.050Z,11.00
2019-05-12T03:10:47.933Z,11.00
2019-05-12T03:13:16.568Z,11.10
2019-05-12T03:15:45.125Z,11.30
2019-05-12T03:18:14.644Z,11.30
2019-05-12T03:20:45.505Z,11.30
2019-05-12T03:23:18.497Z,11.30
2019-05-12T03:25:45.590Z,11.20
2019-05-12T03:28:15.859Z,11.20
2019-05-12T03:30:48.246Z,11.40
2019-05-12T03:33:19.248Z,11.20
2019-05-12T03:35:52.310Z,11.30
2019-05-12T03:38:15.919Z,11.20
2019-05-12T03:40:45.260Z,11.30
2019-05-12T03:43:14.746Z,11.20
2019-05-12T03:45:45.293Z,11.00
2019-05-12T03:48:15.040Z,10.80
2019-05-12T03:50:46.191Z,10.80
2019-05-12T03:53:15.699Z,10.90
2019-05-12T03:55:47.053Z,10.90
2019-05-12T03:58:15.455Z,10.80
2019-05-12T04:00:44.875Z,10.90
2019-05-12T04:03:15.265Z,11.00
2019-05-12T04:05:45.169Z,11.10
2019-05-12T04:08:15.819Z,10.90
2019-05-12T04:10:45.430Z,11.00
2019-05-12T04:13:15.285Z,11.10
2019-05-12T04:15:45.368Z,11.10
2019-05-12T04:18:15.896Z,11.20
2019-05-12T04:20:46.090Z,11.10
2019-05-12T04:23:15.530Z,11.20
2019-05-12T04:25:52.223Z,11.30
2019-05-12T04:28:15.308Z,11.30
2019-05-12T04:30:44.539Z,11.00
2019-05-12T04:33:15.468Z,10.90
2019-05-12T04:35:45.272Z,11.00
2019-05-12T04:38:15.016Z,11.20
2019-05-12T04:40:45.219Z,11.20
2019-05-12T04:43:14.791Z,11.30
2019-05-12T04:45:45.153Z,11.40
2019-05-12T04:48:15.524Z,11.30
2019-05-12T04:50:45.260Z,11.20
2019-05-12T04:53:14.569Z,11.20
2019-05-12T04:55:44.520Z,11.30
2019-05-12T04:58:15.557Z,11.20
2019-05-12T05:00:44.795Z,11.30
2019-05-12T05:03:14.294Z,11.40
2019-05-12T05:05:44.378Z,11.50
2019-05-12T05:08:14.503Z,11.50
2019-05-12T05:10:45.129Z,11.50
2019-05-12T05:13:14.915Z,11.80
2019-05-12T05:15:44.649Z,11.80
2019-05-12T05:18:13.522Z,11.80
2019-05-12T05:20:43.814Z,11.60
2019-05-12T05:23:14.221Z,11.50
2019-05-12T05:25:43.471Z,11.60
2019-05-12T05:28:14.317Z,11.60
2019-05-12T05:30:44.066Z,11.70
2019-05-12T05:33:14.466Z,11.70
2019-05-12T05:35:43.549Z,11.90
2019-05-12T05:38:19.149Z,12.00
2019-05-12T05:40:43.568Z,12.00
2019-05-12T05:43:17.753Z,12.10
2019-05-12T05:45:43.826Z,12.20
2019-05-12T05:48:13.559Z,12.30
2019-05-12T05:50:43.829Z,12.20
2019-05-12T05:53:15.479Z,12.20
2019-05-12T05:55:44.209Z,12.40
2019-05-12T05:58:15.241Z,12.50
2019-05-12T18:46:19.289Z,15.90
2019-05-12T18:48:47.916Z,15.60
2019-05-12T18:51:20.262Z,15.50
2019-05-12T18:53:49.038Z,15.40
2019-05-12T18:56:21.733Z,15.20
2019-05-12T18:58:48.084Z,15.20
2019-05-12T19:01:16.818Z,15.30
2019-05-12T19:03:50.703Z,15.30
2019-05-12T19:06:15.630Z,15.20
2019-05-12T19:08:44.395Z,15.10
2019-05-12T19:11:22.462Z,15.00
2019-05-12T19:13:51.823Z,15.10
2019-05-12T19:16:16.992Z,14.90
2019-05-12T19:18:55.473Z,14.90
2019-05-12T19:21:46.435Z,15.00
2019-05-12T19:24:15.230Z,14.80
2019-05-12T19:26:54.131Z,14.70
2019-05-12T19:38:15.617Z,14.40
2019-05-12T19:43:49.634Z,14.60
2019-05-12T19:46:18.330Z,14.40
2019-05-12T19:54:57.282Z,14.50
2019-05-12T19:57:36.980Z,14.40
2019-05-12T20:02:59.254Z,14.00
2019-05-12T20:05:36.166Z,14.10
2019-05-12T20:08:08.228Z,14.20
2019-05-12T20:16:34.832Z,14.10
2019-05-12T20:19:04.292Z,13.90
2019-05-12T20:21:34.021Z,13.90
2019-05-12T20:24:03.708Z,14.00
2019-05-12T20:33:25.916Z,13.80
2019-05-12T20:39:04.088Z,13.90
2019-05-12T20:41:33.891Z,14.00
2019-05-12T20:47:19.087Z,13.70
2019-05-12T20:49:50.925Z,13.70
2019-05-12T20:52:18.139Z,13.60
2019-05-12T20:54:49.167Z,13.60
2019-05-12T21:10:36.717Z,13.30
2019-05-12T21:13:05.373Z,13.40
2019-05-12T21:30:09.914Z,12.90
2019-05-12T21:35:40.638Z,12.90
2019-05-12T21:38:06.483Z,12.80
2019-05-12T21:40:35.244Z,13.00
2019-05-12T21:43:04.260Z,12.90
2019-05-12T21:45:33.966Z,12.70
2019-05-12T21:54:04.020Z,12.60
2019-05-12T21:56:35.782Z,12.50
2019-05-12T21:59:03.726Z,12.50
2019-05-12T22:07:45.294Z,12.50
2019-05-12T22:10:15.603Z,12.60
2019-05-12T22:12:44.549Z,12.60
2019-05-12T22:15:21.447Z,12.50
2019-05-12T22:21:01.319Z,12.40
2019-05-12T22:23:25.477Z,12.30
2019-05-12T22:25:58.024Z,12.30
2019-05-12T22:28:24.686Z,12.20
2019-05-12T22:30:54.141Z,12.10
2019-05-12T22:36:55.454Z,12.20
2019-05-12T22:39:22.066Z,12.30
2019-05-12T22:41:50.785Z,12.30
2019-05-12T22:44:22.195Z,12.10
2019-05-12T22:53:36.097Z,12.10
2019-05-12T22:56:12.372Z,12.00
2019-05-12T22:58:35.117Z,12.00
2019-05-12T23:01:05.316Z,11.90
2019-05-12T23:03:34.237Z,12.00
2019-05-12T23:09:27.934Z,11.90
2019-05-12T23:11:50.373Z,11.80
2019-05-12T23:14:22.407Z,11.90
2019-05-12T23:16:49.579Z,12.00
2019-05-12T23:19:18.563Z,11.90
2019-05-12T23:21:49.431Z,11.80
2019-05-12T23:24:17.301Z,11.80
2019-05-12T23:26:47.960Z,11.80
2019-05-12T23:29:20.467Z,11.80
2019-05-12T23:31:46.869Z,11.80
2019-05-12T23:34:15.664Z,11.70
2019-05-12T23:40:16.523Z,11.60
2019-05-12T23:42:44.625Z,11.60
2019-05-12T23:45:13.913Z,11.60
2019-05-12T23:47:43.994Z,11.60
2019-05-12T23:53:17.645Z,11.50
2019-05-12T23:55:46.618Z,11.40
2019-05-12T23:58:15.178Z,11.30
